Terminal Aerodrome Forecast
Issued by NWS Chicago, IL

Home | Current Version | Previous Version | Text Only | Print | Product List | Glossary Off
Versions: 1 2 3 4 5 6 7 8 9 10 11 12 13 14 15 16 17 18 19 20 21 22 23 24 25

048
FTUS43 KLOT 202354
TAFRFD
TAF
KRFD 202354Z 2100/2124 35007KT P6SM SCT040 BKN150
     FM210200 07005KT P6SM SCT050 BKN100
     FM211300 10005KT 5SM BR BKN035
     FM211800 14009KT P6SM VCSH SCT050 BKN150 PROB30 2121/2124 4SM
      -TSRA OVC040CB=

USA.gov is the U.S. government's official web portal to all federal, state and local government web resources and services.